createdAt,value
2023-01-09T00:00:50.357Z,20.33
2023-01-09T00:03:27.058Z,23.48
2023-01-09T00:05:54.688Z,22.77
2023-01-09T00:08:22.047Z,26.33
2023-01-09T00:10:50.274Z,31.10
2023-01-09T00:13:17.676Z,29.75
2023-01-09T00:15:45.406Z,21.38
2023-01-09T00:18:12.846Z,21.92
2023-01-09T00:20:40.719Z,22.00
2023-01-09T00:23:08.145Z,22.65
2023-01-09T00:25:35.797Z,21.58
2023-01-09T00:28:03.278Z,23.23
2023-01-09T00:30:31.043Z,22.08
2023-01-09T00:32:58.498Z,20.77
2023-01-09T00:35:27.373Z,23.33
2023-01-09T00:37:54.739Z,26.17
2023-01-09T00:40:22.470Z,24.95
2023-01-09T00:42:51.987Z,25.73
2023-01-09T00:45:22.679Z,25.88
2023-01-09T00:47:51.722Z,24.95
2023-01-09T00:50:21.365Z,27.52
2023-01-09T00:52:49.256Z,31.25
2023-01-09T00:55:17.163Z,28.85
2023-01-09T00:57:44.622Z,27.45
2023-01-09T01:00:12.523Z,27.33
2023-01-09T01:02:39.889Z,24.13
2023-01-09T01:05:07.806Z,27.30
2023-01-09T01:07:35.172Z,26.25
2023-01-09T01:10:03.229Z,25.63
2023-01-09T01:12:30.581Z,26.77
2023-01-09T01:14:58.317Z,26.10
2023-01-09T01:17:38.810Z,27.33
2023-01-09T01:20:14.276Z,25.33
2023-01-09T01:22:41.916Z,25.73
2023-01-09T01:25:10.357Z,24.08
2023-01-09T01:27:38.012Z,23.25
2023-01-09T01:30:06.303Z,26.33
2023-01-09T01:32:33.686Z,25.80
2023-01-09T01:35:19.894Z,26.25
2023-01-09T01:38:05.852Z,25.75
2023-01-09T01:40:53.040Z,25.35
2023-01-09T01:43:55.487Z,24.10
2023-01-09T01:46:23.281Z,25.30
2023-01-09T01:48:53.963Z,25.75
2023-01-09T01:51:41.877Z,25.27
2023-01-09T01:54:12.499Z,28.85
2023-01-09T01:56:55.675Z,27.45
2023-01-09T01:59:42.634Z,25.73
2023-01-09T02:02:22.715Z,24.50
2023-01-09T02:04:51.817Z,26.05
2023-01-09T02:07:19.499Z,23.15
2023-01-09T02:09:46.858Z,24.40
2023-01-09T02:12:34.856Z,25.83
2023-01-09T02:15:12.780Z,24.08
2023-01-09T02:17:50.804Z,23.85
2023-01-09T02:20:24.039Z,23.50
2023-01-09T02:22:57.673Z,23.75
2023-01-09T02:25:43.514Z,23.35
2023-01-09T02:28:27.154Z,24.52
2023-01-09T02:31:17.513Z,24.05
2023-01-09T02:33:48.274Z,24.73
2023-01-09T02:36:18.487Z,23.98
2023-01-09T02:38:46.120Z,21.30
2023-01-09T02:41:32.036Z,23.30
2023-01-09T02:44:12.092Z,21.73
2023-01-09T02:46:39.467Z,22.90
2023-01-09T02:49:07.533Z,20.92
2023-01-09T02:51:50.651Z,21.75
2023-01-09T02:54:30.386Z,22.80
2023-01-09T03:00:20.388Z,22.13
2023-01-09T03:02:50.573Z,20.17
2023-01-09T03:05:23.400Z,21.52
2023-01-09T03:07:58.571Z,21.92
2023-01-09T03:10:28.650Z,20.67
2023-01-09T03:12:59.061Z,21.17
2023-01-09T03:15:29.007Z,21.88
2023-01-09T03:17:57.268Z,20.77
2023-01-09T03:20:25.761Z,19.95
2023-01-09T03:22:54.652Z,21.00
2023-01-09T03:25:22.419Z,21.13
2023-01-09T03:27:52.738Z,20.80
2023-01-09T03:30:20.193Z,21.45
2023-01-09T03:32:47.886Z,22.88
2023-01-09T03:35:15.423Z,20.83
2023-01-09T03:37:43.182Z,21.35
2023-01-09T03:40:10.842Z,20.45
2023-01-09T03:42:38.607Z,21.65
2023-01-09T03:45:06.678Z,21.02
2023-01-09T03:47:34.074Z,20.00
2023-01-09T03:50:01.799Z,20.95
2023-01-09T03:52:29.287Z,21.27
2023-01-09T03:54:57.040Z,21.80
2023-01-09T03:57:24.830Z,21.83
2023-01-09T03:59:52.641Z,21.90
2023-01-09T04:02:20.018Z,19.15
2023-01-09T04:04:47.713Z,19.63
2023-01-09T04:07:15.258Z,18.58
2023-01-09T04:09:42.923Z,19.33
2023-01-09T04:12:10.302Z,19.83
2023-01-09T04:14:38.092Z,19.75
2023-01-09T04:17:05.448Z,20.60
2023-01-09T04:19:33.184Z,19.67
2023-01-09T04:22:00.532Z,20.95
2023-01-09T04:24:28.277Z,21.15
2023-01-09T04:26:55.829Z,20.48
2023-01-09T04:29:23.497Z,21.17
2023-01-09T04:31:51.028Z,21.65
2023-01-09T04:34:18.760Z,19.52
2023-01-09T04:36:46.091Z,21.17
2023-01-09T04:39:13.833Z,22.02
2023-01-09T04:41:41.286Z,19.85
2023-01-09T04:44:08.951Z,18.48
2023-01-09T04:46:36.493Z,20.75
2023-01-09T04:49:04.209Z,19.45
2023-01-09T04:51:31.588Z,19.08
2023-01-09T04:53:59.274Z,20.25
2023-01-09T04:56:26.640Z,20.60
2023-01-09T04:58:54.424Z,18.80
2023-01-09T05:01:22.100Z,17.48
2023-01-09T05:03:49.828Z,17.80
2023-01-09T05:06:17.229Z,18.42
2023-01-09T05:08:45.255Z,17.52
2023-01-09T05:11:12.740Z,17.33
2023-01-09T05:13:40.564Z,18.20
2023-01-09T05:16:08.545Z,26.55
2023-01-09T05:18:36.563Z,33.33
2023-01-09T05:21:03.997Z,26.90
2023-01-09T05:23:31.801Z,21.02
2023-01-09T05:25:59.232Z,18.17
2023-01-09T05:28:27.070Z,18.95
2023-01-09T05:30:54.423Z,19.67
2023-01-09T05:33:22.378Z,18.38
2023-01-09T05:35:49.827Z,21.90
2023-01-09T05:38:17.551Z,20.55
2023-01-09T05:40:45.005Z,18.23
2023-01-09T05:43:12.734Z,20.27
2023-01-09T05:45:40.171Z,17.70
2023-01-09T05:48:07.904Z,18.63
2023-01-09T05:50:35.311Z,20.25
2023-01-09T05:53:02.928Z,20.08
2023-01-09T05:55:30.286Z,19.25
2023-01-09T05:57:59.435Z,18.25
2023-01-09T06:00:26.920Z,18.35
2023-01-09T06:02:54.750Z,19.05
2023-01-09T06:05:22.220Z,17.52
2023-01-09T06:07:49.873Z,18.90
2023-01-09T06:10:17.463Z,21.73
2023-01-09T06:12:48.883Z,17.60
2023-01-09T06:15:17.126Z,18.20
2023-01-09T06:17:44.814Z,18.08
2023-01-09T06:20:12.588Z,17.95
2023-01-09T06:22:40.361Z,21.63
2023-01-09T06:25:07.932Z,25.02
2023-01-09T06:27:35.567Z,21.27
2023-01-09T06:30:03.179Z,17.63
2023-01-09T06:32:30.831Z,17.70
2023-01-09T06:34:58.264Z,17.67
2023-01-09T06:37:25.932Z,17.77
2023-01-09T06:39:53.291Z,18.40
2023-01-09T06:42:20.971Z,18.40
2023-01-09T06:44:48.344Z,28.67
2023-01-09T06:47:16.094Z,22.15
2023-01-09T06:49:43.766Z,15.70
2023-01-09T06:52:11.425Z,15.57
2023-01-09T06:54:38.813Z,15.63
2023-01-09T06:57:06.515Z,15.23
2023-01-09T06:59:33.907Z,15.77
2023-01-09T07:05:18.414Z,15.93
2023-01-09T07:11:00.973Z,21.90
2023-01-09T07:13:28.668Z,22.52
2023-01-09T07:15:56.120Z,22.30
2023-01-09T07:18:23.884Z,21.48
2023-01-09T07:20:51.417Z,16.45
2023-01-09T07:23:19.178Z,18.27
2023-01-09T07:25:46.648Z,22.98
2023-01-09T07:28:14.295Z,17.50
2023-01-09T07:30:41.674Z,16.38
2023-01-09T07:33:09.524Z,16.50
2023-01-09T07:35:36.981Z,17.90
2023-01-09T07:38:04.671Z,16.65
2023-01-09T07:44:04.376Z,14.52
2023-01-09T07:46:32.105Z,15.35
2023-01-09T07:48:59.537Z,15.85
2023-01-09T07:51:27.205Z,17.33
2023-01-09T07:53:54.614Z,15.85
2023-01-09T07:56:22.289Z,15.88
2023-01-09T07:58:49.684Z,16.08
2023-01-09T08:01:17.474Z,16.30
2023-01-09T08:03:44.898Z,16.63
2023-01-09T08:06:12.624Z,16.00
2023-01-09T08:08:40.291Z,15.57
2023-01-09T08:11:07.736Z,15.65
2023-01-09T08:13:35.408Z,16.10
2023-01-09T08:16:03.043Z,15.68
2023-01-09T08:18:30.858Z,15.85
2023-01-09T08:20:58.300Z,14.27
2023-01-09T08:23:26.210Z,15.73
2023-01-09T08:25:53.672Z,14.88
2023-01-09T08:28:21.534Z,15.80
2023-01-09T08:30:48.945Z,14.45
2023-01-09T08:33:16.661Z,15.85
2023-01-09T08:35:44.644Z,16.75
2023-01-09T08:38:12.354Z,17.55
2023-01-09T08:40:39.942Z,19.60
2023-01-09T08:43:09.111Z,19.83
2023-01-09T08:45:36.493Z,20.92
2023-01-09T08:48:04.414Z,20.98
2023-01-09T08:50:31.883Z,21.50
2023-01-09T08:52:59.550Z,21.50
2023-01-09T08:55:27.040Z,20.48
2023-01-09T08:57:54.978Z,23.73
2023-01-09T09:00:23.561Z,24.88
2023-01-09T09:02:52.203Z,25.95
2023-01-09T09:05:23.714Z,26.40
2023-01-09T09:07:52.772Z,25.42
2023-01-09T09:10:23.895Z,26.55
2023-01-09T09:12:58.482Z,23.88
2023-01-09T09:15:26.638Z,24.77
2023-01-09T09:17:55.860Z,19.95
2023-01-09T09:20:24.361Z,20.60
2023-01-09T09:22:52.322Z,20.08
2023-01-09T09:25:20.233Z,18.27
2023-01-09T09:27:48.418Z,17.13
2023-01-09T09:30:16.897Z,16.10
2023-01-09T09:32:44.754Z,15.27
2023-01-09T09:35:14.702Z,14.90
2023-01-09T09:37:44.524Z,14.68
2023-01-09T09:40:25.021Z,14.35
2023-01-09T09:46:27.860Z,13.88
2023-01-09T09:49:02.430Z,13.77
2023-01-09T09:51:39.708Z,13.88
2023-01-09T09:54:13.976Z,14.70
2023-01-09T09:57:00.625Z,14.55
2023-01-09T09:59:31.023Z,14.32
2023-01-09T10:02:17.001Z,14.80
2023-01-09T10:04:48.403Z,16.02
2023-01-09T10:07:20.376Z,14.73
2023-01-09T10:09:52.017Z,15.00
2023-01-09T10:12:19.393Z,13.25
2023-01-09T10:14:47.039Z,15.07
2023-01-09T10:17:17.157Z,13.27
2023-01-09T10:19:44.788Z,15.15
2023-01-09T10:22:14.206Z,14.98
2023-01-09T10:24:57.280Z,15.43
2023-01-09T10:27:33.781Z,14.48
2023-01-09T10:30:05.588Z,15.05
2023-01-09T10:32:35.795Z,14.97
2023-01-09T10:35:15.149Z,15.10
2023-01-09T10:37:44.321Z,14.68
2023-01-09T10:40:14.819Z,15.05
2023-01-09T10:42:47.473Z,15.57
2023-01-09T10:45:33.620Z,15.52
2023-01-09T10:48:06.312Z,15.57
2023-01-09T10:50:35.951Z,16.52
2023-01-09T10:53:07.938Z,16.70
2023-01-09T10:58:04.352Z,13.63
2023-01-09T11:00:32.001Z,13.60
2023-01-09T11:02:59.516Z,13.32
2023-01-09T11:05:40.674Z,13.82
2023-01-09T11:08:19.644Z,13.43
2023-01-09T11:10:49.404Z,13.50
2023-01-09T11:13:24.234Z,12.95
2023-01-09T11:16:03.902Z,12.30
2023-01-09T11:18:32.036Z,13.85
2023-01-09T11:21:12.820Z,13.73
2023-01-09T11:23:40.556Z,14.05
2023-01-09T11:26:20.804Z,14.38
2023-01-09T11:29:04.337Z,14.15
2023-01-09T11:31:32.147Z,13.82
2023-01-09T11:33:59.757Z,14.10
2023-01-09T11:36:27.468Z,13.07
2023-01-09T11:38:58.705Z,12.93
2023-01-09T11:41:33.907Z,12.43
2023-01-09T11:44:09.368Z,13.18
2023-01-09T11:46:37.058Z,13.45
2023-01-09T11:49:06.261Z,12.80
2023-01-09T11:51:35.298Z,13.15
2023-01-09T11:54:05.460Z,14.07
2023-01-09T11:56:33.227Z,13.18
2023-01-09T11:59:00.660Z,13.02
2023-01-09T12:05:02.244Z,13.13
2023-01-09T12:07:37.243Z,16.70
2023-01-09T12:10:40.191Z,13.63
2023-01-09T12:13:14.306Z,14.52
2023-01-09T12:19:15.970Z,13.65
2023-01-09T12:21:53.529Z,13.57
2023-01-09T12:24:28.399Z,12.98
2023-01-09T12:30:27.162Z,12.07
2023-01-09T12:33:17.871Z,11.90
2023-01-09T12:35:54.297Z,11.60
2023-01-09T12:38:35.423Z,11.30
2023-01-09T12:41:02.823Z,10.98
2023-01-09T12:43:39.473Z,10.75
2023-01-09T12:46:24.625Z,9.77
2023-01-09T12:49:15.400Z,10.45
2023-01-09T12:51:55.180Z,8.38
2023-01-09T12:54:31.135Z,9.32
2023-01-09T12:57:01.212Z,6.80
2023-01-09T12:59:36.715Z,7.18
2023-01-09T13:02:04.164Z,7.32
2023-01-09T13:04:33.586Z,7.95
2023-01-09T13:07:12.523Z,7.32
2023-01-09T13:09:44.455Z,6.60
2023-01-09T13:12:25.439Z,7.78
2023-01-09T13:14:58.790Z,8.20
2023-01-09T13:17:49.056Z,7.25
2023-01-09T13:20:19.552Z,8.65
2023-01-09T13:22:50.573Z,5.18
2023-01-09T13:25:18.227Z,6.53
2023-01-09T13:27:52.173Z,5.05
2023-01-09T13:30:22.738Z,5.45
2023-01-09T13:33:02.144Z,4.32
2023-01-09T13:35:29.804Z,6.65
2023-01-09T13:38:02.043Z,6.50
2023-01-09T13:40:29.973Z,5.43
2023-01-09T13:43:05.401Z,5.35
2023-01-09T13:45:34.791Z,6.15
2023-01-09T13:48:10.249Z,7.22
2023-01-09T13:50:39.791Z,6.38
2023-01-09T13:53:17.854Z,5.43
2023-01-09T13:56:00.078Z,6.82
2023-01-09T13:58:28.451Z,6.15
2023-01-09T14:00:59.719Z,6.45
2023-01-09T14:03:38.798Z,5.18
2023-01-09T14:06:15.551Z,6.30
2023-01-09T14:09:10.916Z,6.93
2023-01-09T14:11:38.866Z,6.13
2023-01-09T14:14:23.972Z,6.07
2023-01-09T14:19:26.877Z,6.07
2023-01-09T14:21:56.027Z,5.53
2023-01-09T14:24:31.285Z,5.30
2023-01-09T14:27:00.292Z,6.25
2023-01-09T14:29:36.487Z,6.28
2023-01-09T14:32:22.419Z,7.10
2023-01-09T14:34:52.452Z,8.68
2023-01-09T14:37:20.402Z,8.35
2023-01-09T14:39:52.937Z,6.68
2023-01-09T14:42:24.488Z,5.75
2023-01-09T14:44:55.819Z,5.82
2023-01-09T14:47:37.115Z,6.18
2023-01-09T14:50:07.643Z,6.65
2023-01-09T14:52:40.508Z,9.15
2023-01-09T14:55:24.335Z,13.10
2023-01-09T14:57:55.272Z,11.10
2023-01-09T15:00:23.021Z,11.25
2023-01-09T15:02:54.360Z,6.82
2023-01-09T15:05:23.266Z,6.43
2023-01-09T15:07:58.984Z,4.90
2023-01-09T15:10:29.326Z,5.72
2023-01-09T15:13:00.173Z,5.25
2023-01-09T15:15:27.580Z,4.88
2023-01-09T15:18:01.288Z,5.22
2023-01-09T15:20:32.783Z,4.88
2023-01-09T15:23:00.913Z,4.18
2023-01-09T15:25:40.514Z,4.90
2023-01-09T15:28:28.550Z,4.25
2023-01-09T15:31:01.880Z,4.57
2023-01-09T15:33:29.919Z,3.85
2023-01-09T15:35:57.743Z,3.42
2023-01-09T15:38:26.324Z,4.05
2023-01-09T15:41:03.802Z,3.63
2023-01-09T15:43:31.833Z,3.40
2023-01-09T15:49:21.329Z,4.20
2023-01-09T15:54:52.776Z,3.88
2023-01-09T15:57:26.230Z,3.80
2023-01-09T15:59:54.296Z,4.00
2023-01-09T16:02:22.987Z,3.97
2023-01-09T16:04:52.600Z,3.92
2023-01-09T16:07:20.934Z,4.55
2023-01-09T16:09:48.856Z,3.50
2023-01-09T16:12:21.579Z,3.80
2023-01-09T16:14:54.025Z,4.50
2023-01-09T16:17:24.683Z,4.65
2023-01-09T16:19:53.611Z,4.25
2023-01-09T16:22:29.941Z,3.78
2023-01-09T16:25:03.871Z,4.53
2023-01-09T16:27:35.135Z,3.45
2023-01-09T16:30:04.275Z,4.13
2023-01-09T16:32:33.298Z,4.30
2023-01-09T16:35:06.244Z,3.78
2023-01-09T16:37:34.380Z,4.18
2023-01-09T16:40:16.719Z,3.55
2023-01-09T16:42:44.825Z,4.22
2023-01-09T16:45:12.192Z,4.65
2023-01-09T16:47:39.868Z,4.43
2023-01-09T16:50:10.989Z,4.43
2023-01-09T16:52:38.682Z,5.27
2023-01-09T16:55:06.174Z,5.28
2023-01-09T16:57:38.511Z,6.63
2023-01-09T17:00:06.248Z,6.85
2023-01-09T17:02:34.022Z,7.72
2023-01-09T17:05:01.476Z,6.70
2023-01-09T17:07:29.239Z,6.40
2023-01-09T17:09:56.696Z,6.75
2023-01-09T17:12:24.428Z,6.88
2023-01-09T17:14:51.845Z,6.30
2023-01-09T17:17:19.477Z,7.25
2023-01-09T17:19:49.579Z,6.18
2023-01-09T17:22:17.265Z,6.10
2023-01-09T17:24:44.647Z,6.88
2023-01-09T17:27:12.504Z,6.22
2023-01-09T17:29:48.038Z,6.13
2023-01-09T17:32:17.059Z,5.43
2023-01-09T17:34:44.494Z,5.38
2023-01-09T17:37:15.841Z,5.45
2023-01-09T17:39:43.821Z,5.55
2023-01-09T17:42:11.515Z,4.60
2023-01-09T17:44:40.842Z,5.55
2023-01-09T17:47:13.596Z,4.85
2023-01-09T17:49:41.212Z,6.35
2023-01-09T17:55:46.989Z,5.38
2023-01-09T17:58:24.690Z,5.18
2023-01-09T18:00:52.620Z,4.70
2023-01-09T18:03:20.594Z,5.05
2023-01-09T18:05:49.426Z,5.10
2023-01-09T18:08:17.098Z,4.80
2023-01-09T18:10:44.496Z,5.15
2023-01-09T18:13:12.120Z,5.53
2023-01-09T18:15:41.458Z,5.03
2023-01-09T18:21:34.073Z,5.55
2023-01-09T18:24:01.794Z,6.00
2023-01-09T18:26:29.224Z,6.25
2023-01-09T18:28:58.223Z,7.55
2023-01-09T18:31:26.776Z,5.75
2023-01-09T18:33:55.393Z,4.97
2023-01-09T18:36:24.456Z,7.00
2023-01-09T18:38:54.397Z,6.75
2023-01-09T18:41:22.297Z,6.10
2023-01-09T18:43:50.916Z,7.07
2023-01-09T18:46:18.363Z,7.32
2023-01-09T18:48:50.441Z,8.02
2023-01-09T18:51:20.363Z,7.40
2023-01-09T18:53:48.435Z,7.47
2023-01-09T18:56:18.544Z,7.28
2023-01-09T18:58:46.783Z,7.55
2023-01-09T19:01:14.789Z,6.45
2023-01-09T19:03:42.757Z,6.82
2023-01-09T19:06:10.319Z,6.60
2023-01-09T19:08:38.020Z,6.35
2023-01-09T19:11:08.513Z,7.18
2023-01-09T19:13:36.946Z,8.73
2023-01-09T19:16:05.485Z,12.38
2023-01-09T19:18:34.231Z,13.18
2023-01-09T19:21:02.065Z,12.10
2023-01-09T19:23:32.871Z,9.40
2023-01-09T19:26:03.523Z,8.20
2023-01-09T19:28:31.269Z,8.07
2023-01-09T19:30:58.675Z,8.63
2023-01-09T19:33:27.772Z,9.07
2023-01-09T19:35:55.304Z,9.50
2023-01-09T19:38:23.072Z,11.98
2023-01-09T19:40:53.005Z,13.35
2023-01-09T19:43:20.743Z,14.93
2023-01-09T19:45:48.190Z,16.52
2023-01-09T19:48:38.122Z,18.63
2023-01-09T19:51:06.349Z,21.02
2023-01-09T19:53:34.712Z,22.02
2023-01-09T19:56:08.929Z,21.70
2023-01-09T19:58:36.814Z,22.30
2023-01-09T20:01:07.385Z,22.30
2023-01-09T20:03:35.074Z,20.80
2023-01-09T20:06:03.457Z,20.70
2023-01-09T20:08:31.162Z,18.40
2023-01-09T20:11:02.493Z,24.98
2023-01-09T20:13:30.198Z,21.33
2023-01-09T20:16:00.624Z,18.77
2023-01-09T20:18:31.961Z,16.98
2023-01-09T20:20:59.642Z,16.15
2023-01-09T20:23:27.856Z,15.82
2023-01-09T20:25:55.536Z,17.63
2023-01-09T20:28:23.288Z,16.25
2023-01-09T20:30:51.601Z,16.85
2023-01-09T20:33:20.180Z,15.60
2023-01-09T20:35:47.711Z,15.25
2023-01-09T20:38:15.579Z,15.00
2023-01-09T20:40:42.992Z,16.85
2023-01-09T20:43:11.317Z,16.42
2023-01-09T20:45:39.662Z,15.23
2023-01-09T20:48:07.656Z,15.68
2023-01-09T20:50:35.178Z,15.30
2023-01-09T20:53:03.515Z,16.15
2023-01-09T20:55:31.097Z,15.23
2023-01-09T20:57:58.838Z,14.85
2023-01-09T21:00:26.225Z,14.82
2023-01-09T21:02:54.166Z,15.00
2023-01-09T21:05:21.709Z,15.50
2023-01-09T21:07:49.379Z,16.45
2023-01-09T21:13:49.226Z,15.38
2023-01-09T21:16:18.039Z,16.35
2023-01-09T21:18:45.839Z,16.20
2023-01-09T21:21:14.721Z,17.20
2023-01-09T21:23:46.487Z,16.40
2023-01-09T21:26:15.105Z,17.33
2023-01-09T21:28:43.756Z,16.75
2023-01-09T21:31:11.658Z,15.75
2023-01-09T21:33:39.207Z,18.55
2023-01-09T21:36:07.399Z,18.65
2023-01-09T21:39:12.116Z,20.75
2023-01-09T21:41:39.826Z,18.50
2023-01-09T21:44:10.618Z,19.65
2023-01-09T21:46:38.495Z,18.80
2023-01-09T22:00:02.437Z,18.33
2023-01-09T22:02:30.200Z,17.23
2023-01-09T22:04:57.760Z,17.40
2023-01-09T22:07:25.846Z,16.48
2023-01-09T22:09:53.294Z,17.80
2023-01-09T22:12:46.963Z,18.98
2023-01-09T22:18:25.938Z,18.50
2023-01-09T22:20:53.275Z,18.77
2023-01-09T22:23:21.136Z,19.17
2023-01-09T22:25:48.571Z,22.27
2023-01-09T22:28:16.348Z,21.73
2023-01-09T22:30:43.759Z,21.30
2023-01-09T22:33:11.775Z,21.25
2023-01-09T22:35:42.661Z,21.02
2023-01-09T22:38:10.844Z,20.25
2023-01-09T22:40:39.306Z,18.83
2023-01-09T22:43:07.176Z,19.55
2023-01-09T22:45:34.639Z,19.92
2023-01-09T22:48:02.362Z,21.75
2023-01-09T22:50:29.829Z,18.80
2023-01-09T22:52:57.532Z,19.88
2023-01-09T22:55:24.892Z,19.15
2023-01-09T22:57:52.611Z,19.95
2023-01-09T23:00:20.099Z,18.77
2023-01-09T23:02:47.960Z,20.20
2023-01-09T23:05:15.684Z,18.98
2023-01-09T23:07:43.470Z,20.48
2023-01-09T23:10:11.128Z,21.02
2023-01-09T23:12:38.801Z,21.00
2023-01-09T23:15:06.596Z,20.13
2023-01-09T23:17:34.414Z,21.02
2023-01-09T23:20:01.980Z,21.38
2023-01-09T23:22:29.658Z,20.27
2023-01-09T23:24:57.093Z,19.67
2023-01-09T23:27:24.772Z,19.45
2023-01-09T23:29:52.145Z,20.58
2023-01-09T23:32:19.889Z,19.15
2023-01-09T23:34:47.358Z,20.00
2023-01-09T23:37:15.209Z,19.33
2023-01-09T23:43:15.151Z,18.60
2023-01-09T23:45:43.738Z,18.02
2023-01-09T23:48:12.563Z,18.08
2023-01-09T23:50:44.002Z,17.42
2023-01-09T23:53:11.443Z,16.95
2023-01-09T23:55:39.091Z,19.35
2023-01-09T23:58:06.545Z,20.90
